Time;durP1;ratioP1;P1;durP2;ratioP2;P2;SDS_P1;SDS_P2;PMS_P1;PMS_P2;Temp;Humidity;BMP_temperature;BMP_pressure;BME280_temperature;BME280_humidity;BME280_pressure;Samples;Min_cycle;Max_cycle;Signal;HPM_P1;HPM_P2
2020/12/26 10:09:38;;;;;;;4.80;2.13;;;4.00;99.90;;;;;;5099835;27;20345;-75
2020/12/26 11:20:30;;;;;;;8.25;2.80;;;5.90;99.90;;;;;;5102189;27;20327;-74
2020/12/26 11:22:57;;;;;;;9.40;2.85;;;6.10;99.90;;;;;;5076709;28;20382;-74
2020/12/26 11:25:22;;;;;;;6.57;2.88;;;6.20;99.90;;;;;;5081090;28;20043;-74
2020/12/26 11:27:48;;;;;;;8.75;2.80;;;6.40;99.90;;;;;;5084111;28;20020;-72
2020/12/26 11:30:14;;;;;;;7.13;2.78;;;6.40;99.90;;;;;;5080371;28;20016;-73
2020/12/26 11:32:39;;;;;;;4.85;2.55;;;6.60;99.90;;;;;;5040047;28;20037;-73
2020/12/26 11:35:05;;;;;;;5.13;2.70;;;6.60;99.90;;;;;;5035719;28;20029;-73
2020/12/26 11:37:31;;;;;;;4.75;3.00;;;6.80;99.90;;;;;;5039546;28;20030;-73
2020/12/26 11:39:57;;;;;;;5.78;2.83;;;6.90;99.90;;;;;;5035978;28;20464;-73
2020/12/26 11:42:24;;;;;;;6.15;2.92;;;6.90;99.90;;;;;;5041262;28;20041;-73
2020/12/26 11:44:49;;;;;;;11.70;2.97;;;6.80;99.90;;;;;;5036503;28;20079;-72
2020/12/26 11:47:15;;;;;;;7.90;3.00;;;6.80;99.90;;;;;;5038410;28;20034;-73
2020/12/26 11:49:41;;;;;;;10.70;3.55;;;6.70;99.90;;;;;;5033520;28;20060;-74
2020/12/26 11:52:06;;;;;;;7.72;2.75;;;6.90;99.90;;;;;;5038308;28;20115;-73
2020/12/26 11:54:32;;;;;;;11.85;2.78;;;6.90;99.90;;;;;;5034937;28;20033;-73
2020/12/26 11:56:57;;;;;;;13.00;2.88;;;7.00;99.90;;;;;;5037345;28;20033;-72
2020/12/26 11:59:23;;;;;;;7.85;2.75;;;7.10;99.90;;;;;;5042605;28;20029;-73
2020/12/26 12:01:54;;;;;;;8.15;2.95;;;7.30;99.90;;;;;;5040026;28;20420;-73
2020/12/26 12:04:19;;;;;;;9.73;2.85;;;7.30;99.90;;;;;;5038862;28;20034;-72
2020/12/26 12:06:48;;;;;;;5.53;2.95;;;7.20;99.90;;;;;;5037345;28;20390;-73
2020/12/26 12:09:14;;;;;;;7.43;3.35;;;7.20;99.90;;;;;;5033660;28;20026;-72
2020/12/26 12:11:39;;;;;;;5.85;2.78;;;7.10;99.90;;;;;;5032080;28;20037;-73
2020/12/26 12:14:05;;;;;;;4.28;2.78;;;7.20;99.90;;;;;;5036337;28;20026;-73
2020/12/26 12:16:31;;;;;;;4.75;2.70;;;6.90;99.90;;;;;;5030613;28;20034;-73
2020/12/26 12:18:56;;;;;;;7.00;2.78;;;6.90;99.90;;;;;;5037736;28;20129;-72
2020/12/26 12:21:22;;;;;;;7.82;2.88;;;7.00;99.90;;;;;;5036833;28;20037;-72
2020/12/26 12:23:48;;;;;;;7.43;3.25;;;7.10;99.90;;;;;;5037344;28;20123;-73
2020/12/26 12:26:24;;;;;;;4.88;2.70;;;7.10;99.90;;;;;;5038209;28;20041;-73
2020/12/26 12:28:53;;;;;;;5.63;2.80;;;7.30;99.90;;;;;;5035484;28;20060;-73
2020/12/26 12:31:24;;;;;;;9.15;2.97;;;7.40;99.90;;;;;;5024379;28;20124;-73
2020/12/26 12:33:50;;;;;;;5.30;2.80;;;7.50;99.90;;;;;;5020765;28;20044;-73
2020/12/26 12:36:19;;;;;;;7.90;3.38;;;7.50;99.90;;;;;;5023334;28;20113;-73
2020/12/26 12:38:47;;;;;;;5.85;2.85;;;7.50;99.90;;;;;;5021976;28;20049;-73
2020/12/26 12:41:14;;;;;;;10.30;2.85;;;7.60;99.90;;;;;;5018955;28;20049;-75
2020/12/26 12:43:40;;;;;;;8.43;3.00;;;7.70;99.90;;;;;;5026141;28;20029;-73
2020/12/26 12:46:06;;;;;;;9.77;3.17;;;7.60;99.90;;;;;;5027149;28;20038;-74
2020/12/26 12:48:31;;;;;;;7.57;3.03;;;7.70;99.90;;;;;;5022300;28;20052;-73
2020/12/26 12:50:57;;;;;;;7.53;2.50;;;7.70;99.90;;;;;;5025071;28;20488;-73
2020/12/26 12:53:22;;;;;;;7.72;2.85;;;7.80;99.90;;;;;;5019218;28;20073;-72
2020/12/26 12:55:48;;;;;;;6.20;2.88;;;7.80;99.90;;;;;;5018522;28;20041;-73
2020/12/26 12:58:14;;;;;;;5.70;2.40;;;7.90;99.90;;;;;;5025010;28;20029;-73
2020/12/26 13:00:40;;;;;;;5.85;2.72;;;7.90;99.90;;;;;;5021540;28;20057;-73
2020/12/26 13:03:05;;;;;;;7.38;3.15;;;7.90;99.90;;;;;;5024145;28;20436;-73
2020/12/26 13:05:31;;;;;;;6.28;2.72;;;7.90;99.90;;;;;;5023327;28;20022;-74
2020/12/26 13:07:57;;;;;;;7.15;2.58;;;7.80;99.90;;;;;;5030348;28;20428;-73
2020/12/26 13:10:22;;;;;;;6.78;2.95;;;7.90;99.90;;;;;;5025029;28;20041;-72
2020/12/26 13:12:48;;;;;;;11.85;2.97;;;7.90;99.90;;;;;;5024507;28;20079;-73
2020/12/26 13:15:15;;;;;;;6.45;2.92;;;7.90;99.90;;;;;;5035083;28;20049;-73
2020/12/26 13:17:40;;;;;;;7.43;2.90;;;7.90;99.90;;;;;;5013734;28;20026;-72
2020/12/26 13:20:06;;;;;;;7.43;3.00;;;7.90;99.90;;;;;;5017607;28;20392;-73
2020/12/26 13:22:31;;;;;;;9.63;2.90;;;8.00;99.90;;;;;;5022084;28;20087;-73
2020/12/26 13:24:57;;;;;;;9.15;2.75;;;8.00;99.90;;;;;;5016107;28;20030;-72
2020/12/26 13:27:22;;;;;;;8.50;3.60;;;8.10;99.90;;;;;;5014638;28;20030;-74
2020/12/26 13:29:48;;;;;;;8.05;3.38;;;8.10;99.90;;;;;;5020156;28;20068;-75
2020/12/26 13:32:14;;;;;;;7.75;3.20;;;8.10;99.90;;;;;;5021804;28;20038;-75
2020/12/26 13:34:39;;;;;;;6.13;3.03;;;8.10;99.90;;;;;;5022121;28;20107;-76
2020/12/26 13:37:05;;;;;;;9.13;3.58;;;8.10;99.90;;;;;;5015597;28;20436;-75
2020/12/26 13:39:30;;;;;;;9.18;3.08;;;8.10;99.90;;;;;;5018103;28;20066;-75
2020/12/26 13:41:56;;;;;;;7.47;3.67;;;8.20;99.90;;;;;;5016541;28;20381;-75
2020/12/26 13:44:22;;;;;;;6.60;3.20;;;8.20;99.90;;;;;;5013362;28;20072;-74
2020/12/26 13:46:49;;;;;;;18.88;4.93;;;8.10;99.90;;;;;;5019903;28;20429;-75
2020/12/26 13:49:15;;;;;;;13.52;4.28;;;8.10;99.90;;;;;;5016299;28;20026;-75
2020/12/26 13:51:45;;;;;;;12.98;4.72;;;8.10;99.90;;;;;;5023695;28;20057;-75
2020/12/26 13:54:11;;;;;;;26.35;8.90;;;8.10;99.90;;;;;;5016718;28;20536;-75
2020/12/26 13:56:37;;;;;;;18.60;5.82;;;8.00;99.90;;;;;;5018099;28;20034;-74
2020/12/26 13:59:03;;;;;;;23.58;6.95;;;8.10;99.90;;;;;;5026067;28;20994;-76
2020/12/26 14:01:28;;;;;;;7.97;3.08;;;8.10;99.90;;;;;;5014470;28;20515;-76
2020/12/26 14:03:56;;;;;;;15.63;4.95;;;8.00;99.90;;;;;;5018006;28;20032;-75
2020/12/26 14:06:32;;;;;;;12.20;4.43;;;8.00;99.90;;;;;;5014652;28;20038;-75
2020/12/26 14:08:59;;;;;;;12.05;3.30;;;7.80;99.90;;;;;;5016548;28;20033;-76
2020/12/26 14:11:25;;;;;;;9.45;2.88;;;7.90;99.90;;;;;;5019334;28;20107;-76
2020/12/26 14:13:51;;;;;;;11.18;2.78;;;8.00;99.90;;;;;;5020631;28;20531;-76
2020/12/26 14:16:25;;;;;;;7.65;2.53;;;8.20;99.90;;;;;;5019101;28;20514;-76
2020/12/26 14:18:55;;;;;;;11.18;2.45;;;8.10;99.90;;;;;;5014481;28;20042;-76
2020/12/26 14:21:32;;;;;;;8.50;2.75;;;8.10;99.90;;;;;;5018374;28;20083;-76
2020/12/26 14:23:58;;;;;;;11.40;4.25;;;8.10;99.90;;;;;;5024221;28;20030;-76
2020/12/26 14:26:24;;;;;;;9.45;2.72;;;8.00;99.90;;;;;;5015237;28;20121;-76
2020/12/26 14:28:50;;;;;;;9.07;3.22;;;7.80;99.90;;;;;;5017414;28;20121;-75
2020/12/26 14:31:15;;;;;;;6.70;3.10;;;8.00;99.90;;;;;;5015280;28;20488;-76
2020/12/26 14:33:41;;;;;;;5.05;2.75;;;8.10;99.90;;;;;;5016637;28;20033;-75
2020/12/26 14:36:06;;;;;;;8.80;3.20;;;8.20;99.90;;;;;;5015684;28;20026;-75
2020/12/26 14:38:32;;;;;;;6.60;3.20;;;8.20;99.90;;;;;;5017076;28;20057;-76
2020/12/26 14:40:58;;;;;;;9.20;3.22;;;8.10;99.90;;;;;;5015369;28;20027;-76
2020/12/26 14:43:24;;;;;;;7.45;3.67;;;8.10;99.90;;;;;;5017026;28;20112;-76
2020/12/26 14:45:49;;;;;;;10.93;3.20;;;8.10;99.90;;;;;;5014421;28;20121;-76
2020/12/26 14:48:15;;;;;;;9.20;3.40;;;8.00;99.90;;;;;;5020830;28;20447;-76
2020/12/26 14:50:41;;;;;;;10.98;4.25;;;8.00;99.90;;;;;;5015785;28;20025;-75
2020/12/26 14:53:07;;;;;;;9.02;4.05;;;8.00;99.90;;;;;;5027569;28;20030;-76
2020/12/26 14:55:32;;;;;;;10.68;4.35;;;8.00;99.90;;;;;;5024794;28;20091;-76
2020/12/26 14:57:58;;;;;;;13.57;4.40;;;7.90;99.90;;;;;;5020856;28;20029;-76
2020/12/26 15:00:24;;;;;;;14.85;5.20;;;7.80;99.90;;;;;;5021326;28;20045;-75
2020/12/26 15:02:50;;;;;;;11.25;4.47;;;7.80;99.90;;;;;;5032738;28;20345;-76
2020/12/26 15:05:16;;;;;;;9.45;3.90;;;7.90;99.90;;;;;;5015833;28;20072;-75
2020/12/26 15:07:41;;;;;;;7.57;3.83;;;7.90;99.90;;;;;;5013188;28;22095;-75
2020/12/26 15:10:07;;;;;;;9.45;5.10;;;7.90;99.90;;;;;;5025820;28;20068;-75
2020/12/26 15:12:33;;;;;;;12.68;8.27;;;7.80;99.90;;;;;;5017731;28;20499;-75
2020/12/26 15:15:00;;;;;;;12.35;5.72;;;7.80;99.90;;;;;;5020258;28;20034;-74
2020/12/26 15:17:26;;;;;;;13.63;6.93;;;7.70;99.90;;;;;;5025414;28;20026;-76
2020/12/26 15:19:52;;;;;;;16.75;5.55;;;7.80;99.90;;;;;;5017097;28;20069;-76
2020/12/26 15:22:18;;;;;;;12.45;4.97;;;7.40;99.90;;;;;;5018826;28;20034;-75
2020/12/26 15:24:43;;;;;;;12.70;5.85;;;7.50;99.90;;;;;;5015880;28;20745;-76
2020/12/26 15:27:09;;;;;;;21.67;8.35;;;7.40;99.90;;;;;;5016005;28;20176;-76
2020/12/26 15:29:35;;;;;;;18.55;6.32;;;7.60;99.90;;;;;;5014896;28;20030;-75
2020/12/26 15:32:00;;;;;;;13.90;6.80;;;7.50;99.90;;;;;;5013308;28;20038;-76
2020/12/26 15:34:26;;;;;;;13.85;5.55;;;7.40;99.90;;;;;;5020445;28;20036;-74
2020/12/26 15:36:52;;;;;;;14.40;6.93;;;7.50;99.90;;;;;;5019542;28;20250;-76
2020/12/26 15:39:18;;;;;;;16.40;6.57;;;7.60;99.90;;;;;;5020722;28;20028;-76
2020/12/26 15:41:46;;;;;;;19.70;6.88;;;7.60;99.90;;;;;;5020104;28;20038;-75
2020/12/26 15:44:13;;;;;;;15.02;6.32;;;7.70;99.90;;;;;;5026317;28;20057;-75
2020/12/26 15:46:39;;;;;;;12.63;6.63;;;7.70;99.90;;;;;;5022953;28;20033;-76
2020/12/26 15:49:05;;;;;;;12.80;6.22;;;7.70;99.90;;;;;;5022214;28;20116;-75
2020/12/26 15:51:31;;;;;;;20.67;9.32;;;7.60;99.90;;;;;;5023099;28;20483;-75
